Time;durP1;ratioP1;P1;durP2;ratioP2;P2;SDS_P1;SDS_P2;PMS_P1;PMS_P2;Temp;Humidity;BMP_temperature;BMP_pressure;BME280_temperature;BME280_humidity;BME280_pressure;Samples;Min_cycle;Max_cycle;Signal;HPM_P1;HPM_P2
2022/04/25 00:02:27;;;;;;;9.73;4.55;;;;;;;8.33;100.00;99894.31;5172860;28;20041;-78
2022/04/25 00:04:57;;;;;;;10.80;4.97;;;;;;;8.27;100.00;99896.28;5166006;28;20093;-78
2022/04/25 00:07:27;;;;;;;9.88;4.57;;;;;;;8.04;100.00;99899.69;5162972;28;20030;-77
2022/04/25 00:09:58;;;;;;;11.23;5.55;;;;;;;8.16;100.00;99907.06;5168543;28;20547;-78
2022/04/25 00:12:28;;;;;;;12.93;5.57;;;;;;;8.02;100.00;99906.72;5164207;28;20041;-77
2022/04/25 00:14:58;;;;;;;11.90;5.13;;;;;;;8.11;100.00;99901.19;5162380;28;20030;-77
2022/04/25 00:17:29;;;;;;;16.77;5.65;;;;;;;8.23;100.00;99905.94;5164088;28;20026;-78
2022/04/25 00:19:59;;;;;;;12.88;4.97;;;;;;;8.22;100.00;99914.66;5171978;28;20040;-78
2022/04/25 00:22:29;;;;;;;12.75;5.25;;;;;;;8.21;100.00;99923.38;5186280;22;21319;-76
2022/04/25 00:25:00;;;;;;;10.98;5.25;;;;;;;8.17;100.00;99920.91;5194190;28;20037;-76
2022/04/25 00:27:31;;;;;;;11.32;5.18;;;;;;;7.99;100.00;99917.22;5195600;28;20017;-76
2022/04/25 00:30:01;;;;;;;11.45;5.38;;;;;;;7.83;100.00;99926.47;5197201;28;20469;-76
2022/04/25 00:32:31;;;;;;;12.07;5.57;;;;;;;7.66;100.00;99928.81;5194795;28;20047;-76
2022/04/25 00:35:03;;;;;;;12.00;5.47;;;;;;;7.71;100.00;99932.09;5192377;28;20115;-76
2022/04/25 00:37:34;;;;;;;12.60;5.72;;;;;;;7.70;100.00;99930.41;5189495;28;20013;-76
2022/04/25 00:40:05;;;;;;;13.90;6.07;;;;;;;7.61;100.00;99935.94;5183987;28;20030;-76
2022/04/25 00:42:37;;;;;;;13.15;5.80;;;;;;;7.63;100.00;99931.53;5191020;28;20030;-76
2022/04/25 00:45:11;;;;;;;12.77;5.88;;;;;;;7.54;100.00;99934.41;5179240;28;20069;-76
2022/04/25 00:47:42;;;;;;;13.90;6.03;;;;;;;7.67;100.00;99934.88;5183713;28;20029;-76
2022/04/25 00:50:13;;;;;;;11.50;5.78;;;;;;;7.79;100.00;99935.28;5183082;28;20037;-77
2022/04/25 00:52:44;;;;;;;12.85;6.00;;;;;;;7.63;100.00;99928.91;5183494;28;20072;-76
2022/04/25 00:55:14;;;;;;;12.00;5.65;;;;;;;7.73;100.00;99932.88;5183430;28;20049;-76
2022/04/25 00:57:45;;;;;;;12.48;6.18;;;;;;;7.59;100.00;99939.47;5183240;28;20034;-76
2022/04/25 01:00:15;;;;;;;13.43;6.70;;;;;;;7.58;100.00;99943.84;5183237;28;20383;-76
2022/04/25 01:02:45;;;;;;;10.52;5.97;;;;;;;7.55;100.00;99941.31;5183139;28;20071;-76
2022/04/25 01:05:16;;;;;;;10.88;6.70;;;;;;;7.45;100.00;99949.47;5183110;28;20018;-76
2022/04/25 01:07:47;;;;;;;11.38;6.07;;;;;;;7.71;100.00;99946.88;5183039;28;20026;-77
2022/04/25 01:10:17;;;;;;;9.95;5.57;;;;;;;7.45;100.00;99950.34;5182476;28;20022;-77
2022/04/25 01:12:47;;;;;;;12.32;6.10;;;;;;;7.50;100.00;99953.63;5182708;28;20026;-77
2022/04/25 01:15:17;;;;;;;8.38;5.32;;;;;;;7.59;100.00;99953.34;5182608;28;20045;-77
2022/04/25 01:17:48;;;;;;;10.18;5.50;;;;;;;7.41;100.00;99959.13;5182456;28;20117;-77
2022/04/25 01:20:18;;;;;;;11.57;5.88;;;;;;;7.29;100.00;99956.06;5182498;28;20041;-77
2022/04/25 01:28:43;;;;;;;12.98;6.47;;;;;;;7.08;100.00;99956.75;5181524;28;20029;-77
2022/04/25 01:31:13;;;;;;;11.45;6.13;;;;;;;7.09;100.00;99955.03;5182513;28;20038;-77
2022/04/25 01:33:44;;;;;;;11.68;6.85;;;;;;;7.10;100.00;99954.13;5182508;28;20030;-77
2022/04/25 01:36:15;;;;;;;11.77;6.53;;;;;;;7.14;100.00;99953.13;5176150;28;20029;-77
2022/04/25 01:38:45;;;;;;;13.75;7.40;;;;;;;7.14;100.00;99959.16;5173073;28;20438;-77
2022/04/25 01:41:15;;;;;;;14.27;6.70;;;;;;;7.28;100.00;99965.63;5182221;28;20117;-77
2022/04/25 01:43:46;;;;;;;11.98;6.25;;;;;;;7.52;100.00;99964.81;5182648;28;20076;-77
2022/04/25 01:46:17;;;;;;;8.35;5.63;;;;;;;7.61;100.00;99961.06;5182373;28;20025;-77
2022/04/25 01:48:47;;;;;;;9.68;5.60;;;;;;;7.67;100.00;99960.88;5182657;28;20024;-77
2022/04/25 01:51:17;;;;;;;9.68;5.70;;;;;;;7.55;100.00;99966.47;5181830;28;20029;-77
2022/04/25 01:53:48;;;;;;;8.90;5.65;;;;;;;7.76;100.00;99971.81;5181742;28;20030;-77
2022/04/25 01:56:19;;;;;;;9.13;5.53;;;;;;;7.54;100.00;99970.81;5181408;28;20080;-77
2022/04/25 01:58:50;;;;;;;9.07;5.32;;;;;;;7.55;100.00;99971.69;5182319;28;20372;-77
2022/04/25 02:01:20;;;;;;;11.73;5.95;;;;;;;7.48;100.00;99968.41;5182361;28;20026;-77
2022/04/25 02:03:50;;;;;;;13.15;6.07;;;;;;;7.69;100.00;99959.91;5164492;28;20034;-77
2022/04/25 02:06:21;;;;;;;13.90;6.35;;;;;;;7.74;100.00;99973.59;5182244;28;20026;-77
2022/04/25 02:08:51;;;;;;;10.68;6.28;;;;;;;7.59;100.00;99979.34;5182025;28;20395;-77
2022/04/25 02:11:24;;;;;;;12.23;6.40;;;;;;;7.49;100.00;99975.31;5181942;28;20038;-77
2022/04/25 02:13:54;;;;;;;12.85;7.10;;;;;;;7.54;100.00;99978.59;5182113;28;20030;-77
2022/04/25 02:16:25;;;;;;;14.68;6.60;;;;;;;7.40;100.00;99978.22;5181475;28;20032;-77
2022/04/25 02:18:55;;;;;;;13.02;6.85;;;;;;;7.28;100.00;99979.53;5177345;28;20057;-77
2022/04/25 02:21:26;;;;;;;16.55;7.40;;;;;;;7.08;100.00;99979.31;5181556;28;20084;-77
2022/04/25 02:23:56;;;;;;;12.32;7.50;;;;;;;7.19;100.00;99988.47;5181753;28;20053;-77
2022/04/25 02:26:26;;;;;;;15.13;7.95;;;;;;;7.30;100.00;99988.94;5181935;28;20463;-77
2022/04/25 02:28:57;;;;;;;15.73;7.45;;;;;;;7.13;100.00;99993.00;5181610;28;20660;-77
2022/04/25 02:31:27;;;;;;;15.73;7.60;;;;;;;7.38;100.00;99992.16;5181622;28;20022;-77
2022/04/25 02:33:57;;;;;;;14.48;7.88;;;;;;;7.41;100.00;99985.13;5181797;28;20038;-77
2022/04/25 02:36:28;;;;;;;13.32;7.45;;;;;;;7.29;100.00;99993.31;5181213;28;20025;-77
2022/04/25 02:38:58;;;;;;;13.98;7.82;;;;;;;7.38;100.00;99997.38;5181447;28;20420;-77
2022/04/25 02:41:29;;;;;;;16.38;8.13;;;;;;;7.47;100.00;99994.44;5171381;28;20046;-77
2022/04/25 02:43:59;;;;;;;17.85;8.13;;;;;;;7.38;100.00;100000.81;5181422;28;20033;-77
2022/04/25 02:46:29;;;;;;;13.63;7.10;;;;;;;7.21;100.00;100002.25;5181402;28;20022;-77
2022/04/25 02:48:59;;;;;;;16.45;7.85;;;;;;;7.51;100.00;100001.28;5181407;28;20083;-77
2022/04/25 02:51:30;;;;;;;10.88;5.95;;;;;;;7.22;100.00;100003.06;5163817;28;20028;-77
2022/04/25 02:54:00;;;;;;;14.18;7.00;;;;;;;7.21;100.00;100004.84;5181393;28;20036;-77
2022/04/25 02:56:31;;;;;;;13.90;7.07;;;;;;;7.20;100.00;100005.75;5181038;28;20870;-77
2022/04/25 02:59:01;;;;;;;13.85;7.25;;;;;;;7.47;100.00;99999.66;5181861;28;20030;-77
2022/04/25 03:01:31;;;;;;;16.13;7.55;;;;;;;7.54;100.00;100004.59;5181606;28;20030;-76
2022/04/25 03:04:02;;;;;;;17.52;7.78;;;;;;;7.78;100.00;100001.22;5181388;28;20026;-77
2022/04/25 03:06:32;;;;;;;13.85;7.53;;;;;;;7.66;100.00;99993.81;5181404;28;20632;-77
2022/04/25 03:09:03;;;;;;;17.13;7.22;;;;;;;7.64;100.00;100000.81;5181095;28;20018;-77
2022/04/25 03:11:35;;;;;;;17.02;7.22;;;;;;;7.51;100.00;100004.72;5180687;28;20107;-77
2022/04/25 03:14:05;;;;;;;14.35;6.45;;;;;;;7.60;100.00;99998.38;5180963;28;20034;-77
2022/04/25 03:16:36;;;;;;;12.80;6.50;;;;;;;7.46;100.00;100001.41;5180787;28;20022;-77
2022/04/25 03:19:06;;;;;;;11.07;6.18;;;;;;;7.43;100.00;99998.06;5181101;28;20044;-77
2022/04/25 03:21:36;;;;;;;14.85;7.03;;;;;;;7.70;100.00;100000.59;5180779;28;20025;-77
2022/04/25 03:24:06;;;;;;;11.20;6.13;;;;;;;7.72;100.00;100006.59;5180790;28;20034;-77
2022/04/25 03:26:37;;;;;;;12.07;6.33;;;;;;;7.67;100.00;99998.13;5180669;28;20026;-77
2022/04/25 03:29:07;;;;;;;14.25;5.85;;;;;;;7.60;100.00;100008.75;5180795;28;20327;-77
2022/04/25 03:31:37;;;;;;;13.80;6.03;;;;;;;7.10;100.00;100017.31;5180689;28;20030;-77
2022/04/25 03:34:08;;;;;;;15.63;6.38;;;;;;;7.08;100.00;100021.69;5180781;28;20037;-77
2022/04/25 03:36:38;;;;;;;11.75;6.43;;;;;;;7.06;100.00;100018.31;5180041;28;20033;-78
2022/04/25 03:39:08;;;;;;;12.10;6.25;;;;;;;7.14;100.00;100023.25;5180459;28;20022;-77
2022/04/25 03:41:39;;;;;;;10.88;6.05;;;;;;;7.05;100.00;100019.19;5180162;28;20045;-79
2022/04/25 03:44:09;;;;;;;11.02;6.80;;;;;;;7.04;100.00;100024.44;5180495;28;20030;-77
2022/04/25 03:46:39;;;;;;;14.27;7.18;;;;;;;6.99;100.00;100026.31;5180415;28;20595;-77
2022/04/25 03:49:09;;;;;;;12.18;6.95;;;;;;;7.20;100.00;100020.47;5180440;28;20029;-77
2022/04/25 03:51:41;;;;;;;12.40;7.05;;;;;;;7.40;100.00;100021.56;5180124;28;20025;-77
2022/04/25 03:54:11;;;;;;;15.57;6.68;;;;;;;7.50;100.00;100020.38;5179787;28;20105;-77
2022/04/25 03:59:30;;;;;;;10.82;6.50;;;;;;;7.08;100.00;100039.06;5178771;28;20080;-77
2022/04/25 04:02:00;;;;;;;12.77;6.13;;;;;;;7.09;100.00;100041.59;5180171;28;20042;-77
2022/04/25 04:04:31;;;;;;;12.35;6.25;;;;;;;7.09;100.00;100040.75;5179196;28;20636;-77
2022/04/25 04:07:02;;;;;;;11.25;6.20;;;;;;;7.10;100.00;100038.09;5179855;28;20053;-77
2022/04/25 04:09:44;;;;;;;11.60;6.47;;;;;;;7.40;100.00;100045.81;5180257;28;20487;-77
2022/04/25 04:12:17;;;;;;;11.27;6.53;;;;;;;7.45;100.00;100036.13;5185295;28;20604;-77
2022/04/25 04:14:47;;;;;;;11.40;6.38;;;;;;;7.36;100.00;100043.34;5162947;28;20025;-77
2022/04/25 04:17:17;;;;;;;12.23;6.32;;;;;;;7.32;100.00;100046.97;5182398;28;20100;-77
2022/04/25 04:19:48;;;;;;;10.85;5.72;;;;;;;7.10;100.00;100055.44;5177048;28;20480;-77
2022/04/25 04:22:21;;;;;;;9.23;5.90;;;;;;;7.16;100.00;100050.91;5190780;28;20018;-77
2022/04/25 04:24:52;;;;;;;10.27;5.90;;;;;;;7.36;100.00;100051.97;5184746;28;20030;-77
2022/04/25 04:27:22;;;;;;;14.93;6.20;;;;;;;7.35;100.00;100050.28;5183755;28;20040;-78
2022/04/25 04:29:52;;;;;;;10.25;5.47;;;;;;;7.23;100.00;100057.63;5183989;28;20053;-78
2022/04/25 04:32:22;;;;;;;12.73;5.80;;;;;;;7.39;100.00;100048.44;5183582;28;20052;-79
2022/04/25 04:34:53;;;;;;;10.33;5.27;;;;;;;7.33;100.00;100049.50;5183929;28;20289;-78
2022/04/25 04:37:24;;;;;;;8.50;5.03;;;;;;;7.28;100.00;100060.91;5183556;28;20284;-78
2022/04/25 04:42:44;;;;;;;10.13;5.20;;;;;;;7.29;100.00;100066.09;5182383;28;20091;-78
2022/04/25 04:45:15;;;;;;;8.57;5.30;;;;;;;6.92;100.00;100071.56;5183524;28;20030;-77
2022/04/25 04:47:45;;;;;;;8.65;5.50;;;;;;;7.01;100.00;100081.69;5188696;28;20029;-77
2022/04/25 04:50:16;;;;;;;10.25;5.53;;;;;;;7.36;100.00;100075.38;5196012;28;20036;-77
2022/04/25 04:52:49;;;;;;;9.65;4.90;;;;;;;7.11;100.00;100075.31;5175933;28;20076;-77
2022/04/25 04:55:19;;;;;;;12.00;5.03;;;;;;;7.09;100.00;100079.72;5188691;28;20101;-77
2022/04/25 04:57:51;;;;;;;13.70;5.20;;;;;;;7.14;100.00;100085.63;5184739;28;20113;-77
2022/04/25 05:00:23;;;;;;;11.38;5.68;;;;;;;7.03;100.00;100085.94;5186743;28;20519;-77
2022/04/25 05:02:53;;;;;;;12.05;5.68;;;;;;;6.94;100.00;100090.56;5183568;28;20076;-77
2022/04/25 05:05:25;;;;;;;11.88;5.57;;;;;;;6.93;100.00;100094.03;5183164;28;20026;-77
2022/04/25 05:07:55;;;;;;;10.52;5.25;;;;;;;7.22;100.00;100093.13;5183148;28;20121;-77
2022/04/25 05:10:25;;;;;;;8.23;4.87;;;;;;;7.00;100.00;100098.16;5183673;28;20057;-77
2022/04/25 05:12:56;;;;;;;9.15;5.30;;;;;;;7.11;100.00;100099.53;5183492;28;20276;-77
2022/04/25 05:15:26;;;;;;;8.68;5.40;;;;;;;7.09;100.00;100101.34;5183203;28;20026;-77
2022/04/25 05:17:58;;;;;;;12.55;5.95;;;;;;;7.04;100.00;100102.34;5182863;28;20026;-77
2022/04/25 05:20:29;;;;;;;9.18;4.93;;;;;;;7.07;100.00;100110.09;5182783;28;20109;-77
2022/04/25 05:23:02;;;;;;;12.98;5.40;;;;;;;7.15;100.00;100106.38;5182794;28;20029;-77
2022/04/25 05:25:35;;;;;;;13.40;5.53;;;;;;;7.13;100.00;100105.53;5165762;28;20029;-78
2022/04/25 05:28:06;;;;;;;11.38;5.45;;;;;;;7.11;100.00;100104.75;5179906;28;20480;-78
2022/04/25 05:30:36;;;;;;;10.40;5.35;;;;;;;7.00;100.00;100116.34;5181371;28;20100;-78
2022/04/25 05:33:06;;;;;;;10.95;5.18;;;;;;;6.94;100.00;100112.16;5182057;28;20053;-78
2022/04/25 05:35:37;;;;;;;8.95;5.20;;;;;;;6.84;100.00;100118.53;5182995;28;20018;-78
2022/04/25 05:38:10;;;;;;;15.20;5.28;;;;;;;6.91;100.00;100117.44;5180793;28;20053;-78
2022/04/25 05:40:41;;;;;;;9.80;5.70;;;;;;;7.12;100.00;100121.19;5180289;28;20041;-78
2022/04/25 05:43:11;;;;;;;10.20;5.90;;;;;;;7.26;100.00;100130.28;5181283;28;20056;-78
2022/04/25 05:45:44;;;;;;;8.50;4.97;;;;;;;7.28;100.00;100129.34;5183315;28;20049;-78
2022/04/25 05:53:52;;;;;;;10.95;5.10;;;;;;;7.63;100.00;100136.94;5182479;28;20041;-78
2022/04/25 05:56:22;;;;;;;10.55;5.32;;;;;;;7.60;100.00;100136.16;5181814;28;20030;-78
2022/04/25 05:58:53;;;;;;;9.15;4.70;;;;;;;7.42;100.00;100144.53;5180678;28;20108;-78
2022/04/25 06:01:23;;;;;;;8.05;4.82;;;;;;;7.31;100.00;100150.03;5181561;28;20044;-79
2022/04/25 06:03:53;;;;;;;12.27;5.80;;;;;;;7.66;100.00;100146.41;5182583;28;20033;-78
2022/04/25 06:06:26;;;;;;;10.13;5.07;;;;;;;7.55;100.00;100149.31;5182275;28;20057;-78
2022/04/25 06:08:56;;;;;;;9.90;5.47;;;;;;;7.20;100.00;100155.59;5178421;28;20021;-77
2022/04/25 06:11:26;;;;;;;11.85;5.82;;;;;;;7.05;100.00;100156.03;5181969;28;20026;-77
2022/04/25 06:13:57;;;;;;;11.15;6.20;;;;;;;7.53;100.00;100152.88;5181994;28;20026;-77
2022/04/25 06:16:28;;;;;;;12.70;6.38;;;;;;;7.49;100.00;100149.50;5182062;28;20033;-79
2022/04/25 06:18:58;;;;;;;15.70;6.95;;;;;;;7.76;100.00;100153.88;5181838;28;20570;-77
2022/04/25 06:21:28;;;;;;;11.02;6.13;;;;;;;7.59;100.00;100156.13;5181849;28;20515;-77
2022/04/25 06:24:00;;;;;;;13.35;5.85;;;;;;;7.44;100.00;100156.59;5182540;28;20376;-78
2022/04/25 06:26:30;;;;;;;11.98;5.45;;;;;;;7.52;100.00;100165.00;5181063;28;20030;-78
2022/04/25 06:29:01;;;;;;;11.23;6.78;;;;;;;7.52;100.00;100165.00;5181622;28;20737;-77
2022/04/25 06:31:32;;;;;;;13.73;6.15;;;;;;;7.05;100.00;100169.88;5181274;28;20026;-80
2022/04/25 06:34:02;;;;;;;16.27;6.50;;;;;;;6.95;100.00;100175.38;5181483;28;20052;-79
2022/04/25 06:36:32;;;;;;;11.07;6.15;;;;;;;7.02;100.00;100176.91;5181510;28;20515;-78
2022/04/25 06:39:03;;;;;;;11.18;6.55;;;;;;;7.05;100.00;100176.81;5180236;28;20396;-79
2022/04/25 06:41:33;;;;;;;12.18;6.70;;;;;;;7.08;100.00;100187.97;5180859;28;20653;-78
2022/04/25 06:44:06;;;;;;;16.30;6.85;;;;;;;7.07;100.00;100181.06;5181523;28;20045;-78
2022/04/25 06:46:36;;;;;;;14.77;6.90;;;;;;;6.96;100.00;100177.06;5183565;28;20025;-80
2022/04/25 06:49:25;;;;;;;13.52;6.57;;;;;;;6.99;100.00;100172.66;5180876;28;20030;-78
2022/04/25 06:51:57;;;;;;;13.55;6.65;;;;;;;7.04;100.00;100180.28;5180961;28;20399;-78
2022/04/25 06:54:29;;;;;;;15.50;6.93;;;;;;;6.99;100.00;100187.38;5181261;28;20049;-77
2022/04/25 06:56:59;;;;;;;13.00;7.50;;;;;;;7.27;100.00;100180.53;5181078;28;20585;-78
2022/04/25 06:59:29;;;;;;;15.98;7.32;;;;;;;7.45;100.00;100186.03;5181101;28;20091;-78
2022/04/25 07:02:00;;;;;;;15.93;7.10;;;;;;;7.55;100.00;100180.50;5175279;28;20060;-77
2022/04/25 07:04:31;;;;;;;12.65;6.90;;;;;;;7.70;100.00;100185.25;5169960;28;20500;-77
2022/04/25 07:07:01;;;;;;;12.52;6.30;;;;;;;7.68;100.00;100181.84;5181078;28;20383;-79
2022/04/25 07:09:32;;;;;;;12.82;6.90;;;;;;;7.94;100.00;100189.72;5180387;28;20052;-78
2022/04/25 07:12:02;;;;;;;13.93;6.18;;;;;;;7.81;100.00;100185.78;5180114;28;20798;-79
2022/04/25 07:14:33;;;;;;;10.52;5.97;;;;;;;7.97;100.00;100189.63;5180488;28;20026;-78
2022/04/25 07:17:04;;;;;;;10.77;5.90;;;;;;;7.68;100.00;100191.41;5180118;28;20454;-80
2022/04/25 07:19:39;;;;;;;10.85;5.47;;;;;;;7.69;100.00;100187.91;5180457;28;20065;-78
2022/04/25 07:30:38;;;;;;;10.63;7.07;;;;;;;7.53;100.00;100197.06;5180918;28;20048;-77
2022/04/25 07:33:08;;;;;;;12.52;7.65;;;;;;;7.36;100.00;100194.94;5190478;28;20021;-78
2022/04/25 07:35:39;;;;;;;14.55;7.05;;;;;;;7.43;100.00;100196.50;5174130;28;20037;-77
2022/04/25 07:38:10;;;;;;;15.82;7.15;;;;;;;7.78;100.00;100198.91;5183216;28;20026;-78
2022/04/25 07:40:41;;;;;;;13.93;7.30;;;;;;;7.96;100.00;100200.94;5179631;28;20491;-77
2022/04/25 07:43:11;;;;;;;15.95;6.93;;;;;;;8.09;100.00;100202.25;5182945;28;20665;-77
2022/04/25 07:45:42;;;;;;;16.75;7.18;;;;;;;7.71;100.00;100206.94;5180060;28;20053;-77
2022/04/25 07:48:12;;;;;;;14.73;7.07;;;;;;;7.96;100.00;100208.72;5179776;28;20124;-77
2022/04/25 07:50:44;;;;;;;16.58;7.50;;;;;;;8.37;100.00;100205.69;5184328;28;20033;-77
2022/04/25 07:53:14;;;;;;;18.05;7.38;;;;;;;8.45;100.00;100208.91;5178963;28;20037;-78
2022/04/25 07:55:44;;;;;;;14.35;6.75;;;;;;;8.20;100.00;100214.97;5180020;28;20040;-78
2022/04/25 07:58:15;;;;;;;13.52;6.68;;;;;;;7.77;100.00;100218.00;5180577;28;20541;-77
2022/04/25 08:00:46;;;;;;;13.02;7.25;;;;;;;7.70;100.00;100208.66;5179790;28;20034;-77
2022/04/25 08:03:17;;;;;;;13.07;7.20;;;;;;;7.71;100.00;100220.75;5180097;28;20608;-78
2022/04/25 08:05:47;;;;;;;13.60;6.45;;;;;;;7.64;100.00;100231.38;5179743;28;20036;-77
2022/04/25 08:08:18;;;;;;;10.65;6.18;;;;;;;7.61;100.00;100236.69;5179728;28;20053;-77
2022/04/25 08:10:48;;;;;;;11.07;6.10;;;;;;;7.81;100.00;100239.53;5179805;28;20109;-77
2022/04/25 08:18:57;;;;;;;13.45;6.65;;;;;;;8.40;100.00;100249.84;5180145;28;20068;-79
2022/04/25 08:21:27;;;;;;;12.48;5.80;;;;;;;7.99;100.00;100244.19;5179806;28;20053;-78
2022/04/25 08:23:58;;;;;;;11.13;5.88;;;;;;;7.83;100.00;100249.03;5180026;28;20033;-79
2022/04/25 08:26:28;;;;;;;16.30;7.07;;;;;;;7.66;100.00;100258.22;5179318;28;20052;-78
2022/04/25 08:28:59;;;;;;;14.80;7.60;;;;;;;7.44;100.00;100267.50;5180010;28;20038;-78
2022/04/25 08:31:32;;;;;;;18.42;7.20;;;;;;;7.90;100.00;100257.50;5179638;28;20034;-79
2022/04/25 08:34:04;;;;;;;16.67;7.32;;;;;;;8.14;100.00;100265.41;5179725;28;20056;-79
2022/04/25 08:36:35;;;;;;;12.20;6.45;;;;;;;8.31;100.00;100265.78;5179997;28;20026;-78
2022/04/25 08:39:06;;;;;;;18.48;7.72;;;;;;;8.27;100.00;100263.31;5179425;28;20391;-78
2022/04/25 08:41:50;;;;;;;12.43;6.65;;;;;;;8.24;100.00;100271.22;5179652;28;20026;-79
2022/04/25 08:44:20;;;;;;;11.38;6.30;;;;;;;8.26;100.00;100277.22;5179473;28;20053;-81
2022/04/25 08:46:54;;;;;;;13.07;5.82;;;;;;;8.52;100.00;100278.09;5179569;28;20157;-78
2022/04/25 08:49:25;;;;;;;13.77;6.20;;;;;;;8.69;100.00;100278.41;5172563;28;20097;-80
2022/04/25 08:51:58;;;;;;;12.18;6.20;;;;;;;8.41;100.00;100280.19;5178622;28;20118;-78
2022/04/25 08:54:31;;;;;;;13.43;6.00;;;;;;;7.91;100.00;100282.63;5176126;28;20606;-78
2022/04/25 08:57:05;;;;;;;12.80;6.82;;;;;;;8.47;100.00;100277.41;5179487;28;20033;-78
2022/04/25 08:59:37;;;;;;;13.25;6.72;;;;;;;8.62;100.00;100286.47;5179593;28;20026;-81
2022/04/25 09:02:10;;;;;;;13.68;5.88;;;;;;;8.58;100.00;100292.69;5178740;28;20037;-78
2022/04/25 09:04:40;;;;;;;11.68;6.38;;;;;;;8.11;100.00;100291.53;5167265;28;20054;-79
2022/04/25 09:07:10;;;;;;;13.10;6.47;;;;;;;7.78;100.00;100297.72;5182953;28;20716;-80
2022/04/25 09:09:42;;;;;;;12.55;6.60;;;;;;;8.27;100.00;100298.03;5183078;28;20057;-79
2022/04/25 09:12:15;;;;;;;10.98;6.70;;;;;;;7.99;100.00;100307.50;5182930;28;20091;-78
2022/04/25 09:14:46;;;;;;;13.10;6.47;;;;;;;8.03;100.00;100306.50;5183085;28;20022;-78
2022/04/25 09:17:16;;;;;;;13.07;6.80;;;;;;;8.22;100.00;100314.66;5182988;28;20026;-77
2022/04/25 09:19:47;;;;;;;16.08;7.20;;;;;;;7.81;100.00;100312.38;5182927;28;20405;-80
2022/04/25 09:22:30;;;;;;;17.35;8.15;;;;;;;8.20;100.00;100314.69;5182662;28;20109;-79
2022/04/25 09:25:04;;;;;;;15.02;7.63;;;;;;;8.34;100.00;100312.53;5179130;28;20038;-78
2022/04/25 09:27:35;;;;;;;16.27;7.20;;;;;;;7.95;100.00;100320.66;5182321;28;20025;-79
2022/04/25 09:30:13;;;;;;;15.07;7.50;;;;;;;8.08;100.00;100309.81;5182115;28;20030;-80
2022/04/25 09:32:45;;;;;;;16.08;7.47;;;;;;;8.22;100.00;100323.31;5182430;28;20091;-79
2022/04/25 09:35:33;;;;;;;15.85;7.75;;;;;;;8.58;100.00;100323.94;5182216;28;20030;-78
2022/04/25 09:38:05;;;;;;;17.45;7.90;;;;;;;8.57;100.00;100323.09;5179670;28;20033;-78
2022/04/25 09:40:37;;;;;;;13.65;7.03;;;;;;;8.79;100.00;100318.91;5180125;28;20092;-79
2022/04/25 09:43:08;;;;;;;20.92;7.43;;;;;;;8.26;100.00;100332.75;5183903;28;20558;-80
2022/04/25 09:45:43;;;;;;;14.98;7.55;;;;;;;8.47;100.00;100326.03;5182596;28;20029;-81
2022/04/25 09:48:18;;;;;;;16.77;8.18;;;;;;;8.87;100.00;100327.31;5182382;28;20030;-79
2022/04/25 09:50:59;;;;;;;14.75;7.00;;;;;;;8.78;100.00;100331.97;5182276;28;20057;-80
2022/04/25 09:53:49;;;;;;;13.82;7.30;;;;;;;8.43;100.00;100340.91;5179209;28;20034;-80
2022/04/25 09:56:30;;;;;;;14.48;7.35;;;;;;;8.19;100.00;100333.00;5182141;28;20030;-79
2022/04/25 09:59:05;;;;;;;18.55;7.22;;;;;;;8.23;100.00;100332.81;5178614;28;20033;-78
2022/04/25 10:01:37;;;;;;;11.98;7.35;;;;;;;8.51;100.00;100328.50;5181657;28;20026;-79
2022/04/25 10:04:36;;;;;;;15.75;7.88;;;;;;;8.92;100.00;100330.63;5182119;28;20033;-78
2022/04/25 10:07:07;;;;;;;15.15;6.82;;;;;;;9.11;100.00;100336.09;5160944;28;20022;-78
2022/04/25 10:09:40;;;;;;;13.80;6.47;;;;;;;8.30;100.00;100346.50;5181995;28;20125;-79
2022/04/25 10:12:10;;;;;;;11.02;6.90;;;;;;;8.56;100.00;100336.16;5178936;28;20034;-79
2022/04/25 10:14:41;;;;;;;13.45;6.30;;;;;;;8.37;100.00;100345.44;5181118;28;20732;-78
2022/04/25 10:17:11;;;;;;;13.82;6.95;;;;;;;8.71;100.00;100348.72;5181886;28;20094;-78
2022/04/25 10:19:43;;;;;;;16.63;7.00;;;;;;;8.86;100.00;100351.66;5181169;28;20384;-79
2022/04/25 10:22:15;;;;;;;15.55;6.80;;;;;;;8.95;100.00;100346.19;5181514;28;20820;-78
2022/04/25 10:24:45;;;;;;;13.95;6.75;;;;;;;9.07;100.00;100345.75;5182150;28;20399;-78
2022/04/25 10:27:17;;;;;;;11.85;6.85;;;;;;;9.49;100.00;100346.91;5181814;28;20038;-79
2022/04/25 10:29:51;;;;;;;10.93;6.28;;;;;;;9.63;100.00;100348.13;5181734;28;20068;-80
2022/04/25 10:32:22;;;;;;;13.57;6.80;;;;;;;9.85;100.00;100350.84;5184482;28;20420;-78
2022/04/25 10:34:59;;;;;;;14.13;6.72;;;;;;;9.55;100.00;100346.69;5190575;28;20029;-79
2022/04/25 10:37:35;;;;;;;10.85;6.07;;;;;;;9.60;100.00;100357.81;5187582;28;20030;-80
2022/04/25 10:40:06;;;;;;;;;;;;;;;9.99;100.00;100353.78;5181016;28;20037;-78
2022/04/25 10:46:14;;;;;;;13.20;6.97;;;;;;;9.79;100.00;100359.72;5160206;28;20069;-80
2022/04/25 10:49:09;;;;;;;10.52;6.38;;;;;;;8.90;100.00;100362.84;5180625;28;20069;-79
2022/04/25 10:51:41;;;;;;;12.88;6.85;;;;;;;8.78;100.00;100364.09;5178817;28;20103;-79
2022/04/25 10:54:14;;;;;;;12.60;6.88;;;;;;;9.27;100.00;100356.38;5181502;28;20034;-78
2022/04/25 10:57:22;;;;;;;15.30;7.30;;;;;;;9.69;100.00;100370.56;5184521;28;20038;-79
2022/04/25 10:59:53;;;;;;;13.55;7.05;;;;;;;9.73;100.00;100364.31;5063854;29;20150;-78
2022/04/25 11:02:27;;;;;;;14.52;6.93;;;;;;;9.74;100.00;100366.00;5088861;29;20131;-78
2022/04/25 11:05:10;;;;;;;12.45;7.10;;;;;;;10.14;100.00;100361.94;5138897;28;20065;-80
2022/04/25 11:07:41;;;;;;;14.32;6.75;;;;;;;10.12;100.00;100363.75;5163725;28;20072;-78
2022/04/25 11:10:47;;;;;;;13.70;6.85;;;;;;;9.90;100.00;100368.03;5169057;28;20064;-80
2022/04/25 11:13:18;;;;;;;11.77;6.93;;;;;;;9.52;100.00;100381.56;5179883;28;20034;-78
2022/04/25 11:15:54;;;;;;;11.77;6.38;;;;;;;9.61;100.00;100383.00;5191997;28;20021;-79
2022/04/25 11:21:08;;;;;;;11.30;6.53;;;;;;;9.43;100.00;100375.81;5182136;28;20037;-79
2022/04/25 11:23:44;;;;;;;10.73;6.88;;;;;;;9.39;100.00;100380.28;5188048;28;20527;-79
2022/04/25 11:26:21;;;;;;;12.48;7.38;;;;;;;9.23;100.00;100373.88;5170180;28;20087;-78
2022/04/25 11:28:54;;;;;;;12.85;6.65;;;;;;;9.50;100.00;100385.97;5179804;28;20030;-78
2022/04/25 11:31:26;;;;;;;10.57;6.70;;;;;;;9.63;100.00;100382.03;5182618;28;20053;-79
2022/04/25 11:34:02;;;;;;;14.07;6.25;;;;;;;9.88;100.00;100382.03;5192426;28;20057;-77
2022/04/25 11:36:38;;;;;;;12.25;6.75;;;;;;;9.80;100.00;100386.69;5191006;28;20036;-79
2022/04/25 11:42:00;;;;;;;13.70;6.43;;;;;;;9.90;100.00;100398.50;5178699;28;20104;-78
2022/04/25 11:44:31;;;;;;;10.48;6.22;;;;;;;9.99;99.55;100392.94;5160661;28;20031;-79
2022/04/25 11:47:01;;;;;;;16.02;6.47;;;;;;;10.08;98.78;100397.84;5179813;28;20032;-79
2022/04/25 11:49:32;;;;;;;9.98;6.25;;;;;;;10.22;99.34;100393.00;5179856;28;20104;-78
2022/04/25 11:52:02;;;;;;;13.73;6.22;;;;;;;10.48;99.61;100398.09;5179546;28;20038;-78
2022/04/25 11:54:33;;;;;;;10.45;6.40;;;;;;;10.50;97.95;100397.13;5162589;28;20033;-78
2022/04/25 11:57:03;;;;;;;11.40;6.25;;;;;;;10.58;97.47;100394.22;5180604;28;20137;-78
2022/04/25 11:59:34;;;;;;;10.52;5.97;;;;;;;10.90;98.00;100399.91;5180017;28;20084;-78
2022/04/25 12:02:04;;;;;;;12.43;6.80;;;;;;;10.86;98.36;100400.09;5180101;28;20034;-78
2022/04/25 12:04:34;;;;;;;10.88;6.53;;;;;;;10.48;97.10;100398.09;5180189;28;20705;-78
2022/04/25 12:07:06;;;;;;;12.40;6.28;;;;;;;10.14;99.72;100408.09;5179765;28;20079;-79
2022/04/25 12:15:34;;;;;;;13.00;6.47;;;;;;;10.78;95.86;100408.22;5179736;28;20545;-77
2022/04/25 12:15:43;;;;;;;9.95;6.22;;;;;;;11.25;93.76;100404.56;5180067;28;20655;-78
2022/04/25 12:18:24;;;;;;;10.45;6.30;;;;;;;10.85;98.63;100403.59;5179623;28;20484;-78
2022/04/25 12:21:03;;;;;;;12.48;5.97;;;;;;;10.65;96.36;100409.59;5179564;28;20571;-78
2022/04/25 12:23:36;;;;;;;11.73;6.40;;;;;;;11.00;94.32;100408.25;5177333;28;20037;-78
2022/04/25 12:26:27;;;;;;;12.05;6.15;;;;;;;11.35;93.93;100414.59;5164378;28;20060;-77